EJU25M BKPR-LYBE
Flight info
| Callsign | EJU25M |
|---|---|
| Flight time | 0h 31m |
| Altitude | 26000 |
| Route | UDVAR1D UDVAR DCT GAZON |
| Aircraft | A320/M-SDE3FGHIRWY/LB1 |
Departure
| Time | 2026-05-08 14:07 |
|---|---|
| Airport | Priština Adem Jashari International Airport (BKPR) |
Arrival
| Time | 2026-05-08 14:39 |
|---|---|
| Airport | Belgrade Nikola Tesla Airport (LYBE) |
| Time | Latitude | Longitude | Altitude | Speed | Heading |
|---|---|---|---|---|---|
| 2026-05-08 13:44 | 42.58422 | 21.03088 | 1779 ft | 0 kts | 283° |
| 2026-05-08 13:55 | 42.58420 | 21.03110 | 1776 ft | 2 kts | 268° |
| 2026-05-08 13:56 | 42.58423 | 21.03132 | 1777 ft | 2 kts | 231° |
| 2026-05-08 13:56 | 42.58436 | 21.03146 | 1777 ft | 2 kts | 190° |
| 2026-05-08 13:56 | 42.58448 | 21.03148 | 1776 ft | 1 kts | 175° |
| 2026-05-08 13:56 | 42.58450 | 21.03148 | 1776 ft | 0 kts | 173° |
| 2026-05-08 14:00 | 42.58441 | 21.03149 | 1776 ft | 6 kts | 171° |
| 2026-05-08 14:01 | 42.58400 | 21.03193 | 1776 ft | 10 kts | 124° |
| 2026-05-08 14:01 | 42.58333 | 21.03236 | 1776 ft | 13 kts | 174° |
| 2026-05-08 14:01 | 42.58226 | 21.03248 | 1777 ft | 18 kts | 175° |
| 2026-05-08 14:01 | 42.58082 | 21.03262 | 1778 ft | 23 kts | 176° |
| 2026-05-08 14:02 | 42.57912 | 21.03280 | 1776 ft | 23 kts | 176° |
| 2026-05-08 14:02 | 42.57742 | 21.03295 | 1778 ft | 25 kts | 176° |
| 2026-05-08 14:02 | 42.57580 | 21.03313 | 1775 ft | 22 kts | 175° |
| 2026-05-08 14:02 | 42.57422 | 21.03329 | 1776 ft | 23 kts | 176° |
| 2026-05-08 14:03 | 42.57255 | 21.03346 | 1777 ft | 25 kts | 175° |
| 2026-05-08 14:03 | 42.57078 | 21.03364 | 1777 ft | 23 kts | 176° |
| 2026-05-08 14:03 | 42.56911 | 21.03381 | 1774 ft | 23 kts | 175° |
| 2026-05-08 14:03 | 42.56749 | 21.03397 | 1775 ft | 24 kts | 175° |
| 2026-05-08 14:04 | 42.56579 | 21.03414 | 1776 ft | 22 kts | 176° |
| 2026-05-08 14:04 | 42.56417 | 21.03431 | 1774 ft | 24 kts | 175° |
| 2026-05-08 14:04 | 42.56241 | 21.03448 | 1773 ft | 26 kts | 175° |
| 2026-05-08 14:04 | 42.56070 | 21.03465 | 1775 ft | 25 kts | 176° |
| 2026-05-08 14:05 | 42.55902 | 21.03482 | 1782 ft | 22 kts | 176° |
| 2026-05-08 14:05 | 42.55811 | 21.03534 | 1790 ft | 0 kts | 117° |
| 2026-05-08 14:05 | 42.55805 | 21.03568 | 1790 ft | 7 kts | 96° |
| 2026-05-08 14:06 | 42.55813 | 21.03681 | 1789 ft | 16 kts | 81° |
| 2026-05-08 14:06 | 42.55883 | 21.03728 | 1784 ft | 12 kts | 358° |
| 2026-05-08 14:06 | 42.55902 | 21.03726 | 1782 ft | 5 kts | 355° |
| 2026-05-08 14:06 | 42.56050 | 21.03711 | 1775 ft | 60 kts | 356° |
| 2026-05-08 14:07 | 42.56773 | 21.03637 | 1773 ft | 145 kts | 355° |
| 2026-05-08 14:07 | 42.57884 | 21.03518 | 2384 ft | 165 kts | 354° |
| 2026-05-08 14:07 | 42.59047 | 21.03397 | 3306 ft | 170 kts | 359° |
| 2026-05-08 14:07 | 42.60285 | 21.03278 | 3767 ft | 189 kts | 359° |
| 2026-05-08 14:08 | 42.61679 | 21.03145 | 4137 ft | 212 kts | 359° |
| 2026-05-08 14:08 | 42.63238 | 21.03014 | 4479 ft | 237 kts | 0° |
| 2026-05-08 14:08 | 42.64978 | 21.02996 | 4976 ft | 262 kts | 2° |
| 2026-05-08 14:08 | 42.66846 | 21.03039 | 5792 ft | 272 kts | 3° |
| 2026-05-08 14:09 | 42.68762 | 21.03100 | 6739 ft | 278 kts | 3° |
| 2026-05-08 14:09 | 42.70717 | 21.03163 | 7658 ft | 284 kts | 3° |
| 2026-05-08 14:09 | 42.72711 | 21.03221 | 8594 ft | 289 kts | 2° |
| 2026-05-08 14:09 | 42.74744 | 21.03273 | 9500 ft | 296 kts | 3° |
| 2026-05-08 14:10 | 42.76825 | 21.03324 | 10289 ft | 306 kts | 2° |
| 2026-05-08 14:10 | 42.79042 | 21.03377 | 10651 ft | 331 kts | 2° |
| 2026-05-08 14:10 | 42.81425 | 21.03434 | 10957 ft | 355 kts | 2° |
| 2026-05-08 14:10 | 42.83961 | 21.03489 | 11449 ft | 370 kts | 2° |
| 2026-05-08 14:11 | 42.86561 | 21.03541 | 12215 ft | 377 kts | 2° |
| 2026-05-08 14:11 | 42.89200 | 21.03594 | 13000 ft | 381 kts | 1° |
| 2026-05-08 14:11 | 42.91867 | 21.03648 | 13780 ft | 386 kts | 1° |
| 2026-05-08 14:11 | 42.94572 | 21.03705 | 14457 ft | 391 kts | 1° |
| 2026-05-08 14:12 | 42.97303 | 21.03761 | 15155 ft | 394 kts | 1° |
| 2026-05-08 14:12 | 43.00057 | 21.03813 | 15841 ft | 397 kts | 0° |
| 2026-05-08 14:12 | 43.02829 | 21.03865 | 16508 ft | 401 kts | 1° |
| 2026-05-08 14:12 | 43.05632 | 21.03922 | 17135 ft | 406 kts | 1° |
| 2026-05-08 14:13 | 43.08473 | 21.03983 | 17743 ft | 410 kts | 1° |
| 2026-05-08 14:13 | 43.11336 | 21.04026 | 18387 ft | 413 kts | 358° |
| 2026-05-08 14:13 | 43.14257 | 21.03689 | 18926 ft | 417 kts | 353° |
| 2026-05-08 14:13 | 43.17114 | 21.03279 | 19446 ft | 421 kts | 353° |
| 2026-05-08 14:14 | 43.20035 | 21.02852 | 20007 ft | 423 kts | 353° |
| 2026-05-08 14:14 | 43.22966 | 21.02421 | 20589 ft | 425 kts | 354° |
| 2026-05-08 14:14 | 43.25921 | 21.01987 | 21130 ft | 428 kts | 354° |
| 2026-05-08 14:14 | 43.28893 | 21.01552 | 21654 ft | 431 kts | 354° |
| 2026-05-08 14:15 | 43.31887 | 21.01116 | 22171 ft | 434 kts | 353° |
| 2026-05-08 14:15 | 43.34904 | 21.00676 | 22683 ft | 438 kts | 354° |
| 2026-05-08 14:15 | 43.37949 | 21.00230 | 23102 ft | 443 kts | 354° |
| 2026-05-08 14:15 | 43.41022 | 20.99781 | 23579 ft | 446 kts | 354° |
| 2026-05-08 14:16 | 43.44115 | 20.99329 | 24013 ft | 448 kts | 353° |
| 2026-05-08 14:16 | 43.47223 | 20.98876 | 24444 ft | 450 kts | 353° |
| 2026-05-08 14:16 | 43.50345 | 20.98422 | 24833 ft | 452 kts | 353° |
| 2026-05-08 14:16 | 43.53483 | 20.97960 | 25265 ft | 455 kts | 353° |
| 2026-05-08 14:17 | 43.56640 | 20.97496 | 25696 ft | 457 kts | 353° |
| 2026-05-08 14:17 | 43.59807 | 20.97029 | 25958 ft | 459 kts | 353° |
| 2026-05-08 14:17 | 43.62993 | 20.96561 | 26020 ft | 464 kts | 353° |
| 2026-05-08 14:17 | 43.66262 | 20.96083 | 26019 ft | 468 kts | 353° |
| 2026-05-08 14:18 | 43.69501 | 20.95611 | 26019 ft | 468 kts | 353° |
| 2026-05-08 14:18 | 43.72744 | 20.95134 | 26019 ft | 468 kts | 353° |
| 2026-05-08 14:18 | 43.75986 | 20.94655 | 26016 ft | 468 kts | 353° |
| 2026-05-08 14:18 | 43.79183 | 20.94180 | 26013 ft | 469 kts | 353° |
| 2026-05-08 14:19 | 43.82430 | 20.93697 | 26011 ft | 469 kts | 353° |
| 2026-05-08 14:19 | 43.85672 | 20.93217 | 26010 ft | 469 kts | 353° |
| 2026-05-08 14:19 | 43.88917 | 20.92739 | 26010 ft | 469 kts | 353° |
| 2026-05-08 14:19 | 43.92158 | 20.92266 | 26009 ft | 469 kts | 353° |
| 2026-05-08 14:20 | 43.95445 | 20.91787 | 26009 ft | 469 kts | 353° |
| 2026-05-08 14:20 | 43.98643 | 20.91318 | 26006 ft | 468 kts | 353° |
| 2026-05-08 14:20 | 44.01882 | 20.90837 | 26005 ft | 468 kts | 353° |
| 2026-05-08 14:20 | 44.05121 | 20.90353 | 26002 ft | 468 kts | 353° |
| 2026-05-08 14:21 | 44.08353 | 20.89867 | 25896 ft | 462 kts | 353° |
| 2026-05-08 14:21 | 44.11495 | 20.89395 | 25654 ft | 446 kts | 353° |
| 2026-05-08 14:21 | 44.14526 | 20.88919 | 25407 ft | 430 kts | 351° |
| 2026-05-08 14:21 | 44.17358 | 20.87994 | 25161 ft | 409 kts | 340° |
| 2026-05-08 14:22 | 44.19987 | 20.86542 | 24938 ft | 404 kts | 336° |
| 2026-05-08 14:22 | 44.22560 | 20.85040 | 24681 ft | 398 kts | 336° |
| 2026-05-08 14:22 | 44.25098 | 20.83559 | 24239 ft | 393 kts | 336° |
| 2026-05-08 14:22 | 44.27609 | 20.82096 | 23762 ft | 390 kts | 336° |
| 2026-05-08 14:23 | 44.30101 | 20.80643 | 23239 ft | 387 kts | 336° |
| 2026-05-08 14:23 | 44.32576 | 20.79199 | 22749 ft | 383 kts | 337° |
| 2026-05-08 14:23 | 44.35019 | 20.77770 | 22270 ft | 379 kts | 337° |
| 2026-05-08 14:23 | 44.37445 | 20.76350 | 21772 ft | 377 kts | 337° |
| 2026-05-08 14:24 | 44.39857 | 20.74935 | 21293 ft | 375 kts | 337° |
| 2026-05-08 14:24 | 44.42255 | 20.73529 | 20789 ft | 373 kts | 338° |
| 2026-05-08 14:24 | 44.44648 | 20.72123 | 20286 ft | 372 kts | 338° |
| 2026-05-08 14:24 | 44.47032 | 20.70718 | 19790 ft | 371 kts | 337° |
| 2026-05-08 14:25 | 44.49409 | 20.69315 | 19297 ft | 371 kts | 337° |
| 2026-05-08 14:25 | 44.51758 | 20.67828 | 18809 ft | 370 kts | 330° |
| 2026-05-08 14:25 | 44.53866 | 20.65769 | 18306 ft | 370 kts | 318° |
| 2026-05-08 14:25 | 44.55612 | 20.63137 | 17791 ft | 368 kts | 306° |
| 2026-05-08 14:26 | 44.57000 | 20.60141 | 17314 ft | 365 kts | 301° |
| 2026-05-08 14:26 | 44.58346 | 20.57130 | 16852 ft | 363 kts | 301° |
| 2026-05-08 14:26 | 44.59685 | 20.54143 | 16387 ft | 361 kts | 301° |
| 2026-05-08 14:26 | 44.61016 | 20.51177 | 15936 ft | 359 kts | 301° |
| 2026-05-08 14:27 | 44.62337 | 20.48232 | 15597 ft | 354 kts | 302° |
| 2026-05-08 14:27 | 44.63649 | 20.45304 | 15145 ft | 352 kts | 302° |
| 2026-05-08 14:27 | 44.64938 | 20.42424 | 14638 ft | 345 kts | 302° |
| 2026-05-08 14:27 | 44.66199 | 20.39606 | 14108 ft | 335 kts | 302° |
| 2026-05-08 14:28 | 44.67424 | 20.36859 | 13664 ft | 332 kts | 302° |
| 2026-05-08 14:28 | 44.68647 | 20.34107 | 13203 ft | 332 kts | 302° |
| 2026-05-08 14:28 | 44.69866 | 20.31358 | 12747 ft | 331 kts | 302° |
| 2026-05-08 14:28 | 44.71083 | 20.28616 | 12309 ft | 330 kts | 302° |
| 2026-05-08 14:29 | 44.72297 | 20.25880 | 11854 ft | 330 kts | 301° |
| 2026-05-08 14:29 | 44.73507 | 20.23150 | 11408 ft | 329 kts | 301° |
| 2026-05-08 14:29 | 44.74714 | 20.20424 | 10940 ft | 328 kts | 301° |
| 2026-05-08 14:29 | 44.75913 | 20.17716 | 10604 ft | 323 kts | 301° |
| 2026-05-08 14:30 | 44.77076 | 20.15090 | 10338 ft | 306 kts | 301° |
| 2026-05-08 14:30 | 44.78181 | 20.12591 | 9962 ft | 298 kts | 300° |
| 2026-05-08 14:30 | 44.79263 | 20.10143 | 9724 ft | 291 kts | 300° |
| 2026-05-08 14:30 | 44.80327 | 20.07735 | 9505 ft | 289 kts | 300° |
| 2026-05-08 14:31 | 44.81383 | 20.05339 | 9132 ft | 287 kts | 301° |
| 2026-05-08 14:31 | 44.82432 | 20.02956 | 8734 ft | 286 kts | 301° |
| 2026-05-08 14:31 | 44.83476 | 20.00576 | 8313 ft | 285 kts | 301° |
| 2026-05-08 14:32 | 44.85650 | 19.95938 | 7457 ft | 283 kts | 315° |
| 2026-05-08 14:32 | 44.87322 | 19.94538 | 7043 ft | 282 kts | 345° |
| 2026-05-08 14:32 | 44.89264 | 19.94445 | 6600 ft | 281 kts | 14° |
| 2026-05-08 14:32 | 44.91021 | 19.95554 | 5937 ft | 276 kts | 31° |
| 2026-05-08 14:33 | 44.92628 | 19.96995 | 5270 ft | 271 kts | 38° |
| 2026-05-08 14:33 | 44.93469 | 19.98278 | 4939 ft | 266 kts | 57° |
| 2026-05-08 14:33 | 44.94082 | 20.00622 | 4726 ft | 248 kts | 82° |
| 2026-05-08 14:33 | 44.93972 | 20.02958 | 4492 ft | 233 kts | 105° |
| 2026-05-08 14:34 | 44.93280 | 20.05000 | 4216 ft | 225 kts | 121° |
| 2026-05-08 14:34 | 44.92466 | 20.06840 | 3923 ft | 218 kts | 120° |
| 2026-05-08 14:34 | 44.91679 | 20.08627 | 3639 ft | 211 kts | 121° |
| 2026-05-08 14:34 | 44.90915 | 20.10366 | 3373 ft | 206 kts | 121° |
| 2026-05-08 14:35 | 44.90175 | 20.12046 | 3127 ft | 198 kts | 120° |
| 2026-05-08 14:35 | 44.89456 | 20.13680 | 2845 ft | 194 kts | 120° |
| 2026-05-08 14:35 | 44.88760 | 20.15261 | 2584 ft | 185 kts | 121° |
| 2026-05-08 14:35 | 44.88095 | 20.16768 | 2358 ft | 178 kts | 121° |
| 2026-05-08 14:36 | 44.87454 | 20.18223 | 2141 ft | 168 kts | 120° |
| 2026-05-08 14:36 | 44.86866 | 20.19554 | 1913 ft | 153 kts | 120° |
| 2026-05-08 14:36 | 44.86322 | 20.20788 | 1724 ft | 144 kts | 121° |
| 2026-05-08 14:36 | 44.85796 | 20.21980 | 1500 ft | 142 kts | 119° |
| 2026-05-08 14:37 | 44.85277 | 20.23155 | 1316 ft | 140 kts | 121° |
| 2026-05-08 14:37 | 44.84761 | 20.24323 | 1136 ft | 141 kts | 119° |
| 2026-05-08 14:37 | 44.84245 | 20.25491 | 951 ft | 140 kts | 120° |
| 2026-05-08 14:37 | 44.83729 | 20.26657 | 762 ft | 140 kts | 119° |
| 2026-05-08 14:38 | 44.83212 | 20.27827 | 585 ft | 141 kts | 119° |
| 2026-05-08 14:38 | 44.82695 | 20.28993 | 393 ft | 140 kts | 120° |
| 2026-05-08 14:38 | 44.82218 | 20.30077 | 326 ft | 109 kts | 122° |
| 2026-05-08 14:38 | 44.81909 | 20.30774 | 331 ft | 59 kts | 121° |
| 2026-05-08 14:39 | 44.81751 | 20.31129 | 328 ft | 31 kts | 129° |
| 2026-05-08 14:39 | 44.81554 | 20.31215 | 335 ft | 30 kts | 196° |
| 2026-05-08 14:39 | 44.81466 | 20.31057 | 335 ft | 16 kts | 296° |
| 2026-05-08 14:39 | 44.81529 | 20.30918 | 334 ft | 18 kts | 302° |
| 2026-05-08 14:40 | 44.81602 | 20.30756 | 331 ft | 20 kts | 302° |